sensor_id;sensor_type;location;lat;lon;timestamp;P1;durP1;ratioP1;P2;durP2;ratioP2
30593;SDS011;33199;47.590;8.300;2023-03-12T00:01:41;12.18;;;9.50;;
30593;SDS011;33199;47.590;8.300;2023-03-12T00:04:07;14.30;;;9.63;;
30593;SDS011;33199;47.590;8.300;2023-03-12T00:06:32;13.48;;;10.27;;
30593;SDS011;33199;47.590;8.300;2023-03-12T00:08:58;14.45;;;10.27;;
30593;SDS011;33199;47.590;8.300;2023-03-12T00:11:26;14.35;;;9.98;;
30593;SDS011;33199;47.590;8.300;2023-03-12T00:13:54;15.95;;;10.25;;
30593;SDS011;33199;47.590;8.300;2023-03-12T00:16:21;12.50;;;9.45;;
30593;SDS011;33199;47.590;8.300;2023-03-12T00:18:47;14.77;;;9.52;;
30593;SDS011;33199;47.590;8.300;2023-03-12T00:21:14;14.80;;;9.98;;
30593;SDS011;33199;47.590;8.300;2023-03-12T00:23:40;14.40;;;9.93;;
30593;SDS011;33199;47.590;8.300;2023-03-12T00:26:07;14.10;;;9.82;;
30593;SDS011;33199;47.590;8.300;2023-03-12T00:28:37;15.43;;;10.38;;
30593;SDS011;33199;47.590;8.300;2023-03-12T00:31:11;13.90;;;9.68;;
30593;SDS011;33199;47.590;8.300;2023-03-12T00:33:47;15.18;;;10.40;;
30593;SDS011;33199;47.590;8.300;2023-03-12T00:36:14;14.13;;;9.98;;
30593;SDS011;33199;47.590;8.300;2023-03-12T00:38:41;11.60;;;9.13;;
30593;SDS011;33199;47.590;8.300;2023-03-12T00:41:07;13.73;;;9.35;;
30593;SDS011;33199;47.590;8.300;2023-03-12T00:43:32;16.30;;;9.50;;
30593;SDS011;33199;47.590;8.300;2023-03-12T00:45:58;14.95;;;8.57;;
30593;SDS011;33199;47.590;8.300;2023-03-12T00:48:24;17.90;;;10.05;;
30593;SDS011;33199;47.590;8.300;2023-03-12T00:50:49;14.00;;;9.70;;
30593;SDS011;33199;47.590;8.300;2023-03-12T00:53:15;12.50;;;9.10;;
30593;SDS011;33199;47.590;8.300;2023-03-12T00:55:40;15.32;;;9.30;;
30593;SDS011;33199;47.590;8.300;2023-03-12T00:58:06;15.02;;;9.52;;
30593;SDS011;33199;47.590;8.300;2023-03-12T01:00:32;12.35;;;9.13;;
30593;SDS011;33199;47.590;8.300;2023-03-12T01:02:58;14.32;;;9.85;;
30593;SDS011;33199;47.590;8.300;2023-03-12T01:05:23;14.90;;;9.07;;
30593;SDS011;33199;47.590;8.300;2023-03-12T01:07:49;12.32;;;9.50;;
30593;SDS011;33199;47.590;8.300;2023-03-12T01:10:15;13.27;;;9.45;;
30593;SDS011;33199;47.590;8.300;2023-03-12T01:12:43;15.05;;;9.80;;
30593;SDS011;33199;47.590;8.300;2023-03-12T01:15:09;12.88;;;9.13;;
30593;SDS011;33199;47.590;8.300;2023-03-12T01:17:38;13.38;;;9.55;;
30593;SDS011;33199;47.590;8.300;2023-03-12T01:20:04;13.15;;;9.77;;
30593;SDS011;33199;47.590;8.300;2023-03-12T01:22:30;14.32;;;9.02;;
30593;SDS011;33199;47.590;8.300;2023-03-12T01:24:56;13.75;;;9.02;;
30593;SDS011;33199;47.590;8.300;2023-03-12T01:27:21;14.02;;;9.57;;
30593;SDS011;33199;47.590;8.300;2023-03-12T01:29:47;14.45;;;9.68;;
30593;SDS011;33199;47.590;8.300;2023-03-12T01:32:13;15.63;;;10.40;;
30593;SDS011;33199;47.590;8.300;2023-03-12T01:34:38;15.50;;;10.15;;
30593;SDS011;33199;47.590;8.300;2023-03-12T01:37:04;16.17;;;9.75;;
30593;SDS011;33199;47.590;8.300;2023-03-12T01:39:31;15.65;;;10.80;;
30593;SDS011;33199;47.590;8.300;2023-03-12T01:41:56;17.75;;;10.80;;
30593;SDS011;33199;47.590;8.300;2023-03-12T01:44:22;16.05;;;10.43;;
30593;SDS011;33199;47.590;8.300;2023-03-12T01:46:47;16.23;;;10.75;;
30593;SDS011;33199;47.590;8.300;2023-03-12T01:49:18;18.88;;;11.68;;
30593;SDS011;33199;47.590;8.300;2023-03-12T01:51:54;14.88;;;10.52;;
30593;SDS011;33199;47.590;8.300;2023-03-12T01:54:25;16.33;;;10.57;;
30593;SDS011;33199;47.590;8.300;2023-03-12T01:56:51;16.73;;;11.27;;
30593;SDS011;33199;47.590;8.300;2023-03-12T01:59:30;21.05;;;10.68;;
30593;SDS011;33199;47.590;8.300;2023-03-12T02:02:01;16.77;;;10.38;;
30593;SDS011;33199;47.590;8.300;2023-03-12T02:04:27;16.73;;;11.02;;
30593;SDS011;33199;47.590;8.300;2023-03-12T02:06:58;14.48;;;10.55;;
30593;SDS011;33199;47.590;8.300;2023-03-12T02:09:26;17.52;;;10.98;;
30593;SDS011;33199;47.590;8.300;2023-03-12T02:11:51;17.33;;;10.75;;
30593;SDS011;33199;47.590;8.300;2023-03-12T02:14:17;16.25;;;10.65;;
30593;SDS011;33199;47.590;8.300;2023-03-12T02:16:43;18.58;;;11.93;;
30593;SDS011;33199;47.590;8.300;2023-03-12T02:19:13;17.65;;;11.38;;
30593;SDS011;33199;47.590;8.300;2023-03-12T02:21:47;17.23;;;10.80;;
30593;SDS011;33199;47.590;8.300;2023-03-12T02:26:59;16.65;;;10.45;;
30593;SDS011;33199;47.590;8.300;2023-03-12T02:29:26;19.25;;;11.25;;
30593;SDS011;33199;47.590;8.300;2023-03-12T02:31:56;14.75;;;10.68;;
30593;SDS011;33199;47.590;8.300;2023-03-12T02:36:50;15.98;;;10.13;;
30593;SDS011;33199;47.590;8.300;2023-03-12T02:39:15;18.63;;;10.38;;
30593;SDS011;33199;47.590;8.300;2023-03-12T02:41:45;17.90;;;10.80;;
30593;SDS011;33199;47.590;8.300;2023-03-12T02:44:18;18.98;;;11.18;;
30593;SDS011;33199;47.590;8.300;2023-03-12T02:46:47;16.70;;;10.70;;
30593;SDS011;33199;47.590;8.300;2023-03-12T02:49:19;18.73;;;10.82;;
30593;SDS011;33199;47.590;8.300;2023-03-12T02:51:47;18.95;;;11.38;;
30593;SDS011;33199;47.590;8.300;2023-03-12T02:54:14;19.60;;;11.40;;
30593;SDS011;33199;47.590;8.300;2023-03-12T02:56:41;19.77;;;11.35;;
30593;SDS011;33199;47.590;8.300;2023-03-12T02:59:07;19.05;;;10.88;;
30593;SDS011;33199;47.590;8.300;2023-03-12T03:01:34;19.27;;;12.25;;
30593;SDS011;33199;47.590;8.300;2023-03-12T03:04:00;18.55;;;10.82;;
30593;SDS011;33199;47.590;8.300;2023-03-12T03:06:27;18.20;;;12.15;;
30593;SDS011;33199;47.590;8.300;2023-03-12T03:08:54;17.85;;;11.43;;
30593;SDS011;33199;47.590;8.300;2023-03-12T03:11:19;16.75;;;11.48;;
30593;SDS011;33199;47.590;8.300;2023-03-12T03:16:14;18.58;;;10.13;;
30593;SDS011;33199;47.590;8.300;2023-03-12T03:18:40;18.23;;;11.10;;
30593;SDS011;33199;47.590;8.300;2023-03-12T03:21:07;17.80;;;11.68;;
30593;SDS011;33199;47.590;8.300;2023-03-12T03:23:34;18.92;;;11.73;;
30593;SDS011;33199;47.590;8.300;2023-03-12T03:26:00;18.33;;;11.55;;
30593;SDS011;33199;47.590;8.300;2023-03-12T03:28:27;21.73;;;12.65;;
30593;SDS011;33199;47.590;8.300;2023-03-12T03:30:54;17.27;;;11.40;;
30593;SDS011;33199;47.590;8.300;2023-03-12T03:33:29;20.13;;;12.38;;
30593;SDS011;33199;47.590;8.300;2023-03-12T03:35:57;18.50;;;11.18;;
30593;SDS011;33199;47.590;8.300;2023-03-12T03:38:24;18.88;;;12.40;;
30593;SDS011;33199;47.590;8.300;2023-03-12T03:40:51;19.05;;;11.75;;
30593;SDS011;33199;47.590;8.300;2023-03-12T03:43:17;20.67;;;12.48;;
30593;SDS011;33199;47.590;8.300;2023-03-12T03:45:43;19.17;;;12.32;;
30593;SDS011;33199;47.590;8.300;2023-03-12T03:48:09;22.75;;;11.85;;
30593;SDS011;33199;47.590;8.300;2023-03-12T03:50:36;18.15;;;11.77;;
30593;SDS011;33199;47.590;8.300;2023-03-12T03:53:03;18.85;;;12.02;;
30593;SDS011;33199;47.590;8.300;2023-03-12T03:55:29;19.58;;;12.20;;
30593;SDS011;33199;47.590;8.300;2023-03-12T03:57:54;17.52;;;11.93;;
30593;SDS011;33199;47.590;8.300;2023-03-12T04:00:20;22.95;;;13.00;;
30593;SDS011;33199;47.590;8.300;2023-03-12T04:02:46;17.92;;;12.10;;
30593;SDS011;33199;47.590;8.300;2023-03-12T04:05:12;20.70;;;13.70;;
30593;SDS011;33199;47.590;8.300;2023-03-12T04:07:39;25.60;;;13.45;;
30593;SDS011;33199;47.590;8.300;2023-03-12T04:10:05;19.23;;;12.60;;
30593;SDS011;33199;47.590;8.300;2023-03-12T04:12:31;18.88;;;12.60;;
30593;SDS011;33199;47.590;8.300;2023-03-12T04:14:57;19.95;;;13.23;;
30593;SDS011;33199;47.590;8.300;2023-03-12T04:17:22;19.38;;;12.95;;
30593;SDS011;33199;47.590;8.300;2023-03-12T04:19:48;21.25;;;13.13;;
30593;SDS011;33199;47.590;8.300;2023-03-12T04:22:14;22.17;;;13.85;;
30593;SDS011;33199;47.590;8.300;2023-03-12T04:24:39;20.60;;;13.48;;
30593;SDS011;33199;47.590;8.300;2023-03-12T04:27:05;24.60;;;13.35;;
30593;SDS011;33199;47.590;8.300;2023-03-12T04:29:31;21.40;;;12.43;;
30593;SDS011;33199;47.590;8.300;2023-03-12T04:31:56;20.35;;;12.95;;
30593;SDS011;33199;47.590;8.300;2023-03-12T04:34:22;19.35;;;12.98;;
30593;SDS011;33199;47.590;8.300;2023-03-12T04:36:47;19.95;;;13.00;;
30593;SDS011;33199;47.590;8.300;2023-03-12T04:39:17;20.55;;;12.90;;
30593;SDS011;33199;47.590;8.300;2023-03-12T04:41:43;19.23;;;12.80;;
30593;SDS011;33199;47.590;8.300;2023-03-12T04:44:09;20.77;;;12.90;;
30593;SDS011;33199;47.590;8.300;2023-03-12T04:46:35;21.13;;;13.45;;
30593;SDS011;33199;47.590;8.300;2023-03-12T04:49:01;23.00;;;13.20;;
30593;SDS011;33199;47.590;8.300;2023-03-12T04:51:28;22.10;;;13.30;;
30593;SDS011;33199;47.590;8.300;2023-03-12T04:53:54;20.55;;;13.30;;
30593;SDS011;33199;47.590;8.300;2023-03-12T04:56:20;25.50;;;12.93;;
30593;SDS011;33199;47.590;8.300;2023-03-12T04:58:46;19.33;;;12.63;;
30593;SDS011;33199;47.590;8.300;2023-03-12T05:01:18;21.15;;;12.57;;
30593;SDS011;33199;47.590;8.300;2023-03-12T05:03:50;19.77;;;12.45;;
30593;SDS011;33199;47.590;8.300;2023-03-12T05:06:16;19.23;;;11.95;;
30593;SDS011;33199;47.590;8.300;2023-03-12T05:08:42;24.77;;;12.80;;
30593;SDS011;33199;47.590;8.300;2023-03-12T05:11:08;22.23;;;13.65;;
30593;SDS011;33199;47.590;8.300;2023-03-12T05:13:33;20.38;;;13.40;;
30593;SDS011;33199;47.590;8.300;2023-03-12T05:15:59;21.85;;;13.55;;
30593;SDS011;33199;47.590;8.300;2023-03-12T05:18:25;21.50;;;12.55;;
30593;SDS011;33199;47.590;8.300;2023-03-12T05:21:24;21.85;;;13.52;;
30593;SDS011;33199;47.590;8.300;2023-03-12T05:23:43;22.27;;;12.90;;
30593;SDS011;33199;47.590;8.300;2023-03-12T05:26:29;22.15;;;13.48;;
30593;SDS011;33199;47.590;8.300;2023-03-12T05:28:57;23.08;;;13.13;;
30593;SDS011;33199;47.590;8.300;2023-03-12T05:31:27;22.92;;;13.63;;
30593;SDS011;33199;47.590;8.300;2023-03-12T05:33:57;24.95;;;14.40;;
30593;SDS011;33199;47.590;8.300;2023-03-12T05:36:23;21.67;;;13.45;;
30593;SDS011;33199;47.590;8.300;2023-03-12T05:38:48;24.20;;;14.60;;
30593;SDS011;33199;47.590;8.300;2023-03-12T05:41:22;24.92;;;14.52;;
30593;SDS011;33199;47.590;8.300;2023-03-12T05:43:51;24.40;;;14.20;;
30593;SDS011;33199;47.590;8.300;2023-03-12T05:46:17;28.55;;;13.73;;
30593;SDS011;33199;47.590;8.300;2023-03-12T05:48:43;24.73;;;14.52;;
30593;SDS011;33199;47.590;8.300;2023-03-12T05:51:09;22.10;;;13.25;;
30593;SDS011;33199;47.590;8.300;2023-03-12T05:53:35;21.23;;;14.25;;
30593;SDS011;33199;47.590;8.300;2023-03-12T05:56:04;24.70;;;13.50;;
30593;SDS011;33199;47.590;8.300;2023-03-12T05:58:32;21.25;;;13.65;;
30593;SDS011;33199;47.590;8.300;2023-03-12T06:00:58;19.83;;;13.63;;
30593;SDS011;33199;47.590;8.300;2023-03-12T06:03:24;22.42;;;14.15;;
30593;SDS011;33199;47.590;8.300;2023-03-12T06:05:50;24.33;;;14.80;;
30593;SDS011;33199;47.590;8.300;2023-03-12T06:08:19;21.77;;;14.05;;
30593;SDS011;33199;47.590;8.300;2023-03-12T06:10:45;26.83;;;14.75;;
30593;SDS011;33199;47.590;8.300;2023-03-12T06:13:11;22.55;;;14.05;;
30593;SDS011;33199;47.590;8.300;2023-03-12T06:15:38;22.90;;;14.10;;
30593;SDS011;33199;47.590;8.300;2023-03-12T06:18:03;21.88;;;13.82;;
30593;SDS011;33199;47.590;8.300;2023-03-12T06:20:29;22.20;;;14.05;;
30593;SDS011;33199;47.590;8.300;2023-03-12T06:22:55;22.50;;;14.65;;
30593;SDS011;33199;47.590;8.300;2023-03-12T06:25:20;23.98;;;14.20;;
30593;SDS011;33199;47.590;8.300;2023-03-12T06:27:46;23.70;;;14.88;;
30593;SDS011;33199;47.590;8.300;2023-03-12T06:30:12;28.60;;;16.15;;
30593;SDS011;33199;47.590;8.300;2023-03-12T06:32:38;28.35;;;17.50;;
30593;SDS011;33199;47.590;8.300;2023-03-12T06:35:03;29.10;;;16.52;;
30593;SDS011;33199;47.590;8.300;2023-03-12T06:37:30;28.90;;;14.80;;
30593;SDS011;33199;47.590;8.300;2023-03-12T06:39:55;23.15;;;15.07;;
30593;SDS011;33199;47.590;8.300;2023-03-12T06:42:21;29.00;;;16.35;;
30593;SDS011;33199;47.590;8.300;2023-03-12T06:44:48;24.25;;;14.73;;
30593;SDS011;33199;47.590;8.300;2023-03-12T06:47:14;23.35;;;14.80;;
30593;SDS011;33199;47.590;8.300;2023-03-12T06:49:39;26.60;;;15.25;;
30593;SDS011;33199;47.590;8.300;2023-03-12T06:52:05;21.27;;;14.23;;
30593;SDS011;33199;47.590;8.300;2023-03-12T06:54:31;21.13;;;13.65;;
30593;SDS011;33199;47.590;8.300;2023-03-12T06:56:57;19.33;;;12.95;;
30593;SDS011;33199;47.590;8.300;2023-03-12T06:59:23;24.55;;;14.43;;
30593;SDS011;33199;47.590;8.300;2023-03-12T07:01:49;22.02;;;12.52;;
30593;SDS011;33199;47.590;8.300;2023-03-12T07:04:15;21.02;;;13.57;;
30593;SDS011;33199;47.590;8.300;2023-03-12T07:06:41;22.80;;;12.48;;
30593;SDS011;33199;47.590;8.300;2023-03-12T07:09:07;20.25;;;12.20;;
30593;SDS011;33199;47.590;8.300;2023-03-12T07:11:32;16.75;;;11.70;;
30593;SDS011;33199;47.590;8.300;2023-03-12T07:13:58;21.83;;;12.07;;
30593;SDS011;33199;47.590;8.300;2023-03-12T07:16:24;19.00;;;12.05;;
30593;SDS011;33199;47.590;8.300;2023-03-12T07:18:49;18.65;;;12.07;;
30593;SDS011;33199;47.590;8.300;2023-03-12T07:21:15;17.90;;;10.98;;
30593;SDS011;33199;47.590;8.300;2023-03-12T07:23:47;17.50;;;11.07;;
30593;SDS011;33199;47.590;8.300;2023-03-12T07:26:13;15.60;;;11.18;;
30593;SDS011;33199;47.590;8.300;2023-03-12T07:28:39;17.90;;;11.23;;
30593;SDS011;33199;47.590;8.300;2023-03-12T07:31:05;17.15;;;11.55;;
30593;SDS011;33199;47.590;8.300;2023-03-12T07:33:31;17.13;;;11.63;;
30593;SDS011;33199;47.590;8.300;2023-03-12T07:35:57;15.35;;;10.10;;
30593;SDS011;33199;47.590;8.300;2023-03-12T07:38:23;18.20;;;12.25;;
30593;SDS011;33199;47.590;8.300;2023-03-12T07:40:53;16.83;;;10.55;;
30593;SDS011;33199;47.590;8.300;2023-03-12T07:43:20;17.30;;;10.55;;
30593;SDS011;33199;47.590;8.300;2023-03-12T07:45:46;16.60;;;10.77;;
30593;SDS011;33199;47.590;8.300;2023-03-12T07:48:12;16.35;;;9.70;;
30593;SDS011;33199;47.590;8.300;2023-03-12T07:50:38;12.50;;;9.43;;
30593;SDS011;33199;47.590;8.300;2023-03-12T07:53:04;15.43;;;9.77;;
30593;SDS011;33199;47.590;8.300;2023-03-12T07:55:30;16.55;;;9.75;;
30593;SDS011;33199;47.590;8.300;2023-03-12T07:57:57;15.25;;;10.00;;
30593;SDS011;33199;47.590;8.300;2023-03-12T08:00:23;13.55;;;9.00;;
30593;SDS011;33199;47.590;8.300;2023-03-12T08:02:50;12.38;;;8.88;;
30593;SDS011;33199;47.590;8.300;2023-03-12T08:05:16;12.82;;;8.77;;
30593;SDS011;33199;47.590;8.300;2023-03-12T08:07:42;10.73;;;8.05;;
30593;SDS011;33199;47.590;8.300;2023-03-12T08:10:07;11.55;;;8.52;;
30593;SDS011;33199;47.590;8.300;2023-03-12T08:12:34;11.73;;;8.93;;
30593;SDS011;33199;47.590;8.300;2023-03-12T08:15:01;12.35;;;8.60;;
30593;SDS011;33199;47.590;8.300;2023-03-12T08:17:32;12.38;;;8.15;;
30593;SDS011;33199;47.590;8.300;2023-03-12T08:19:57;11.98;;;8.18;;
30593;SDS011;33199;47.590;8.300;2023-03-12T08:22:23;9.45;;;7.32;;
30593;SDS011;33199;47.590;8.300;2023-03-12T08:24:49;9.00;;;6.75;;
30593;SDS011;33199;47.590;8.300;2023-03-12T08:27:15;9.20;;;6.82;;
30593;SDS011;33199;47.590;8.300;2023-03-12T08:29:40;10.80;;;7.35;;
30593;SDS011;33199;47.590;8.300;2023-03-12T08:32:06;10.38;;;7.20;;
30593;SDS011;33199;47.590;8.300;2023-03-12T08:34:34;8.15;;;6.90;;
30593;SDS011;33199;47.590;8.300;2023-03-12T08:37:00;9.90;;;7.05;;
30593;SDS011;33199;47.590;8.300;2023-03-12T08:39:27;10.45;;;7.28;;
30593;SDS011;33199;47.590;8.300;2023-03-12T08:41:53;7.82;;;6.65;;
30593;SDS011;33199;47.590;8.300;2023-03-12T08:44:20;10.02;;;6.60;;
30593;SDS011;33199;47.590;8.300;2023-03-12T08:46:46;9.65;;;6.88;;
30593;SDS011;33199;47.590;8.300;2023-03-12T08:49:12;9.65;;;6.22;;
30593;SDS011;33199;47.590;8.300;2023-03-12T08:51:37;7.32;;;6.35;;
30593;SDS011;33199;47.590;8.300;2023-03-12T08:54:03;6.70;;;5.68;;
30593;SDS011;33199;47.590;8.300;2023-03-12T08:56:29;6.95;;;6.03;;
30593;SDS011;33199;47.590;8.300;2023-03-12T08:58:56;8.13;;;5.93;;
30593;SDS011;33199;47.590;8.300;2023-03-12T09:01:23;7.38;;;5.55;;
30593;SDS011;33199;47.590;8.300;2023-03-12T09:03:48;8.98;;;6.15;;
30593;SDS011;33199;47.590;8.300;2023-03-12T09:06:16;6.15;;;5.55;;
30593;SDS011;33199;47.590;8.300;2023-03-12T09:08:44;6.85;;;5.40;;
30593;SDS011;33199;47.590;8.300;2023-03-12T09:11:11;8.93;;;5.38;;
30593;SDS011;33199;47.590;8.300;2023-03-12T09:13:38;9.13;;;5.53;;
30593;SDS011;33199;47.590;8.300;2023-03-12T09:16:05;6.88;;;5.70;;
30593;SDS011;33199;47.590;8.300;2023-03-12T09:18:31;5.78;;;4.95;;
30593;SDS011;33199;47.590;8.300;2023-03-12T09:20:58;5.93;;;4.78;;
30593;SDS011;33199;47.590;8.300;2023-03-12T09:23:24;7.90;;;5.80;;
30593;SDS011;33199;47.590;8.300;2023-03-12T09:25:51;8.63;;;6.75;;
30593;SDS011;33199;47.590;8.300;2023-03-12T09:28:17;11.10;;;7.38;;
30593;SDS011;33199;47.590;8.300;2023-03-12T09:30:43;10.82;;;7.05;;
30593;SDS011;33199;47.590;8.300;2023-03-12T09:33:08;9.18;;;7.20;;
30593;SDS011;33199;47.590;8.300;2023-03-12T09:35:34;12.63;;;8.57;;
30593;SDS011;33199;47.590;8.300;2023-03-12T09:38:00;12.55;;;9.52;;
30593;SDS011;33199;47.590;8.300;2023-03-12T09:40:27;13.57;;;8.60;;
30593;SDS011;33199;47.590;8.300;2023-03-12T09:42:56;10.55;;;8.32;;
30593;SDS011;33199;47.590;8.300;2023-03-12T09:45:29;12.95;;;8.50;;
30593;SDS011;33199;47.590;8.300;2023-03-12T09:48:00;12.35;;;8.40;;
30593;SDS011;33199;47.590;8.300;2023-03-12T09:55:26;10.32;;;8.02;;
30593;SDS011;33199;47.590;8.300;2023-03-12T09:57:57;10.35;;;7.60;;
30593;SDS011;33199;47.590;8.300;2023-03-12T10:00:25;10.23;;;7.80;;
30593;SDS011;33199;47.590;8.300;2023-03-12T10:11:24;10.83;;;6.70;;
30593;SDS011;33199;47.590;8.300;2023-03-12T10:14:10;13.60;;;7.05;;
30593;SDS011;33199;47.590;8.300;2023-03-12T10:25:05;11.82;;;7.05;;
30593;SDS011;33199;47.590;8.300;2023-03-12T10:28:03;7.65;;;6.30;;
30593;SDS011;33199;47.590;8.300;2023-03-12T10:30:50;8.73;;;7.00;;
30593;SDS011;33199;47.590;8.300;2023-03-12T10:33:21;7.43;;;6.32;;
30593;SDS011;33199;47.590;8.300;2023-03-12T10:35:54;7.68;;;6.50;;
30593;SDS011;33199;47.590;8.300;2023-03-12T10:38:25;7.75;;;6.47;;
30593;SDS011;33199;47.590;8.300;2023-03-12T10:40:54;8.90;;;6.72;;
30593;SDS011;33199;47.590;8.300;2023-03-12T10:43:20;7.88;;;6.07;;
30593;SDS011;33199;47.590;8.300;2023-03-12T10:54:29;7.22;;;5.70;;
30593;SDS011;33199;47.590;8.300;2023-03-12T10:57:00;9.55;;;6.47;;
30593;SDS011;33199;47.590;8.300;2023-03-12T10:59:27;6.38;;;5.28;;
30593;SDS011;33199;47.590;8.300;2023-03-12T11:04:54;6.32;;;5.30;;
30593;SDS011;33199;47.590;8.300;2023-03-12T11:07:30;7.45;;;5.65;;
30593;SDS011;33199;47.590;8.300;2023-03-12T11:12:32;6.78;;;5.20;;
30593;SDS011;33199;47.590;8.300;2023-03-12T11:15:16;6.43;;;5.03;;
30593;SDS011;33199;47.590;8.300;2023-03-12T11:17:46;6.13;;;5.15;;
30593;SDS011;33199;47.590;8.300;2023-03-12T11:20:23;5.50;;;5.00;;
30593;SDS011;33199;47.590;8.300;2023-03-12T11:22:50;5.13;;;4.60;;
30593;SDS011;33199;47.590;8.300;2023-03-12T11:25:23;6.93;;;5.15;;
30593;SDS011;33199;47.590;8.300;2023-03-12T11:27:53;5.57;;;5.07;;
30593;SDS011;33199;47.590;8.300;2023-03-12T11:30:31;5.53;;;5.00;;
30593;SDS011;33199;47.590;8.300;2023-03-12T11:33:01;5.53;;;4.70;;
30593;SDS011;33199;47.590;8.300;2023-03-12T11:38:42;5.20;;;4.68;;
30593;SDS011;33199;47.590;8.300;2023-03-12T11:49:05;6.20;;;4.40;;
30593;SDS011;33199;47.590;8.300;2023-03-12T11:57:31;4.32;;;3.83;;
30593;SDS011;33199;47.590;8.300;2023-03-12T12:00:20;5.38;;;4.20;;
30593;SDS011;33199;47.590;8.300;2023-03-12T12:10:51;3.88;;;3.35;;
30593;SDS011;33199;47.590;8.300;2023-03-12T12:21:05;4.53;;;3.20;;
30593;SDS011;33199;47.590;8.300;2023-03-12T12:26:08;3.33;;;2.85;;
30593;SDS011;33199;47.590;8.300;2023-03-12T12:31:29;2.88;;;2.65;;
30593;SDS011;33199;47.590;8.300;2023-03-12T12:36:43;3.50;;;3.20;;
30593;SDS011;33199;47.590;8.300;2023-03-12T12:39:14;4.03;;;3.45;;
30593;SDS011;33199;47.590;8.300;2023-03-12T12:41:49;2.83;;;2.58;;
30593;SDS011;33199;47.590;8.300;2023-03-12T12:44:18;3.30;;;2.58;;
30593;SDS011;33199;47.590;8.300;2023-03-12T12:46:52;3.65;;;3.22;;
30593;SDS011;33199;47.590;8.300;2023-03-12T12:52:17;3.72;;;3.10;;
30593;SDS011;33199;47.590;8.300;2023-03-12T12:57:38;2.85;;;2.65;;
30593;SDS011;33199;47.590;8.300;2023-03-12T13:00:17;2.88;;;2.50;;
30593;SDS011;33199;47.590;8.300;2023-03-12T13:02:49;2.53;;;2.38;;
30593;SDS011;33199;47.590;8.300;2023-03-12T13:05:21;3.17;;;2.60;;
30593;SDS011;33199;47.590;8.300;2023-03-12T13:07:49;2.30;;;2.15;;
30593;SDS011;33199;47.590;8.300;2023-03-12T13:12:59;2.67;;;2.25;;
30593;SDS011;33199;47.590;8.300;2023-03-12T13:15:43;3.15;;;2.70;;
30593;SDS011;33199;47.590;8.300;2023-03-12T13:18:17;3.40;;;2.33;;
30593;SDS011;33199;47.590;8.300;2023-03-12T13:33:49;2.50;;;1.90;;
30593;SDS011;33199;47.590;8.300;2023-03-12T13:38:57;7.22;;;2.00;;
30593;SDS011;33199;47.590;8.300;2023-03-12T13:41:36;1.48;;;1.23;;
30593;SDS011;33199;47.590;8.300;2023-03-12T13:44:22;5.38;;;2.00;;
30593;SDS011;33199;47.590;8.300;2023-03-12T13:46:57;4.05;;;2.03;;
30593;SDS011;33199;47.590;8.300;2023-03-12T13:52:25;3.70;;;1.65;;
30593;SDS011;33199;47.590;8.300;2023-03-12T14:00:19;2.47;;;1.70;;
30593;SDS011;33199;47.590;8.300;2023-03-12T14:02:58;1.90;;;1.42;;
30593;SDS011;33199;47.590;8.300;2023-03-12T14:05:27;2.58;;;1.50;;
30593;SDS011;33199;47.590;8.300;2023-03-12T14:16:46;2.25;;;1.35;;
30593;SDS011;33199;47.590;8.300;2023-03-12T14:21:46;1.50;;;1.40;;
30593;SDS011;33199;47.590;8.300;2023-03-12T14:24:24;5.13;;;1.55;;
30593;SDS011;33199;47.590;8.300;2023-03-12T14:27:03;4.22;;;1.50;;
30593;SDS011;33199;47.590;8.300;2023-03-12T14:32:05;2.55;;;1.42;;
30593;SDS011;33199;47.590;8.300;2023-03-12T14:34:53;1.20;;;1.20;;
30593;SDS011;33199;47.590;8.300;2023-03-12T14:37:31;0.95;;;0.95;;
30593;SDS011;33199;47.590;8.300;2023-03-12T14:40:01;3.40;;;1.20;;
30593;SDS011;33199;47.590;8.300;2023-03-12T14:42:33;1.30;;;1.20;;
30593;SDS011;33199;47.590;8.300;2023-03-12T14:45:09;1.50;;;1.40;;
30593;SDS011;33199;47.590;8.300;2023-03-12T14:48:09;1.80;;;1.50;;
30593;SDS011;33199;47.590;8.300;2023-03-12T14:50:28;1.60;;;1.40;;
30593;SDS011;33199;47.590;8.300;2023-03-12T14:56:06;3.20;;;1.55;;
30593;SDS011;33199;47.590;8.300;2023-03-12T14:58:44;2.65;;;1.75;;
30593;SDS011;33199;47.590;8.300;2023-03-12T15:01:17;7.28;;;1.30;;
30593;SDS011;33199;47.590;8.300;2023-03-12T15:04:03;3.80;;;1.42;;
30593;SDS011;33199;47.590;8.300;2023-03-12T15:06:36;2.20;;;1.20;;
30593;SDS011;33199;47.590;8.300;2023-03-12T15:09:06;2.97;;;1.20;;
30593;SDS011;33199;47.590;8.300;2023-03-12T15:11:39;1.98;;;1.10;;
30593;SDS011;33199;47.590;8.300;2023-03-12T15:14:11;3.33;;;1.38;;
30593;SDS011;33199;47.590;8.300;2023-03-12T15:16:39;4.38;;;1.35;;
30593;SDS011;33199;47.590;8.300;2023-03-12T15:19:08;2.45;;;1.27;;
30593;SDS011;33199;47.590;8.300;2023-03-12T15:21:36;4.60;;;1.33;;
30593;SDS011;33199;47.590;8.300;2023-03-12T15:24:02;1.52;;;1.42;;
30593;SDS011;33199;47.590;8.300;2023-03-12T15:26:31;2.55;;;1.50;;
30593;SDS011;33199;47.590;8.300;2023-03-12T15:31:48;1.38;;;1.20;;
30593;SDS011;33199;47.590;8.300;2023-03-12T15:34:27;1.38;;;1.20;;
30593;SDS011;33199;47.590;8.300;2023-03-12T15:36:56;1.63;;;1.20;;
30593;SDS011;33199;47.590;8.300;2023-03-12T15:39:24;3.85;;;1.38;;
30593;SDS011;33199;47.590;8.300;2023-03-12T15:41:54;2.42;;;1.10;;
30593;SDS011;33199;47.590;8.300;2023-03-12T15:44:24;3.00;;;1.20;;
30593;SDS011;33199;47.590;8.300;2023-03-12T15:47:00;3.28;;;1.48;;
30593;SDS011;33199;47.590;8.300;2023-03-12T15:49:29;1.88;;;1.10;;
30593;SDS011;33199;47.590;8.300;2023-03-12T15:54:42;2.25;;;1.13;;
30593;SDS011;33199;47.590;8.300;2023-03-12T15:57:50;1.13;;;1.02;;
30593;SDS011;33199;47.590;8.300;2023-03-12T16:02:47;2.67;;;1.13;;
30593;SDS011;33199;47.590;8.300;2023-03-12T16:05:14;1.33;;;1.23;;
30593;SDS011;33199;47.590;8.300;2023-03-12T16:07:40;1.60;;;1.25;;
30593;SDS011;33199;47.590;8.300;2023-03-12T16:10:06;2.28;;;1.08;;
30593;SDS011;33199;47.590;8.300;2023-03-12T16:12:38;1.75;;;1.10;;
30593;SDS011;33199;47.590;8.300;2023-03-12T16:15:04;1.15;;;1.05;;
30593;SDS011;33199;47.590;8.300;2023-03-12T16:17:30;1.50;;;1.15;;
30593;SDS011;33199;47.590;8.300;2023-03-12T16:19:56;1.02;;;1.02;;
30593;SDS011;33199;47.590;8.300;2023-03-12T16:22:21;2.83;;;1.00;;
30593;SDS011;33199;47.590;8.300;2023-03-12T16:24:47;1.63;;;1.00;;
30593;SDS011;33199;47.590;8.300;2023-03-12T16:27:13;0.95;;;0.95;;
30593;SDS011;33199;47.590;8.300;2023-03-12T16:29:41;1.63;;;1.20;;
30593;SDS011;33199;47.590;8.300;2023-03-12T16:32:10;1.70;;;1.45;;
30593;SDS011;33199;47.590;8.300;2023-03-12T16:34:38;1.40;;;1.17;;
30593;SDS011;33199;47.590;8.300;2023-03-12T16:37:04;2.00;;;1.17;;
30593;SDS011;33199;47.590;8.300;2023-03-12T16:39:32;5.05;;;1.85;;
30593;SDS011;33199;47.590;8.300;2023-03-12T16:41:59;0.90;;;0.90;;
30593;SDS011;33199;47.590;8.300;2023-03-12T16:44:25;1.58;;;1.25;;
30593;SDS011;33199;47.590;8.300;2023-03-12T16:46:54;1.95;;;1.40;;
30593;SDS011;33199;47.590;8.300;2023-03-12T16:49:19;1.50;;;0.80;;
30593;SDS011;33199;47.590;8.300;2023-03-12T16:51:45;1.17;;;1.08;;
30593;SDS011;33199;47.590;8.300;2023-03-12T16:54:12;3.10;;;1.23;;
30593;SDS011;33199;47.590;8.300;2023-03-12T16:56:40;2.22;;;1.05;;
30593;SDS011;33199;47.590;8.300;2023-03-12T16:59:15;1.15;;;0.90;;
30593;SDS011;33199;47.590;8.300;2023-03-12T17:01:51;1.35;;;1.10;;
30593;SDS011;33199;47.590;8.300;2023-03-12T17:04:17;3.13;;;1.10;;